createdAt,value
2019-04-20T00:01:12.645Z,12.80
2019-04-20T00:03:43.190Z,19.50
2019-04-20T00:06:11.545Z,13.90
2019-04-20T00:08:42.642Z,15.80
2019-04-20T00:11:17.848Z,16.30
2019-04-20T00:13:52.034Z,13.87
2019-04-20T00:16:12.633Z,14.47
2019-04-20T00:18:48.440Z,14.20
2019-04-20T00:21:30.835Z,15.10
2019-04-20T00:24:07.482Z,16.50
2019-04-20T00:27:04.698Z,12.93
2019-04-20T00:29:21.632Z,14.43
2019-04-20T00:31:50.399Z,18.27
2019-04-20T00:34:13.844Z,15.90
2019-04-20T00:36:37.202Z,14.97
2019-04-20T00:39:10.872Z,15.93
2019-04-20T00:41:44.072Z,15.00
2019-04-20T00:44:15.631Z,16.00
2019-04-20T00:46:52.146Z,18.10
2019-04-20T00:49:29.290Z,17.87
2019-04-20T00:52:11.023Z,15.53
2019-04-20T00:54:11.410Z,17.03
2019-04-20T00:56:41.294Z,15.77
2019-04-20T00:59:24.105Z,13.60
2019-04-20T01:02:00.181Z,16.87
2019-04-20T01:04:32.795Z,14.87
2019-04-20T01:07:08.264Z,15.83
2019-04-20T01:09:37.060Z,15.13
2019-04-20T01:12:14.816Z,13.77
2019-04-20T01:14:43.456Z,12.97
2019-04-20T01:17:11.701Z,11.57
2019-04-20T01:19:37.214Z,13.03
2019-04-20T01:22:12.463Z,14.77
2019-04-20T01:24:40.504Z,16.43
2019-04-20T01:27:22.887Z,13.37
2019-04-20T01:29:44.337Z,12.90
2019-04-20T01:32:18.804Z,12.23
2019-04-20T01:34:50.818Z,12.27
2019-04-20T01:37:24.563Z,11.43
2019-04-20T01:39:48.041Z,12.60
2019-04-20T01:42:10.987Z,13.27
2019-04-20T01:44:44.046Z,11.50
2019-04-20T01:47:11.628Z,14.20
2019-04-20T01:49:41.960Z,14.37
2019-04-20T01:52:18.852Z,11.83
2019-04-20T01:55:08.685Z,12.17
2019-04-20T01:57:53.324Z,9.87
2019-04-20T02:00:13.231Z,12.40
2019-04-20T02:02:59.289Z,12.10
2019-04-20T02:05:31.002Z,9.57
2019-04-20T02:07:57.443Z,11.10
2019-04-20T02:10:35.013Z,12.63
2019-04-20T02:13:00.169Z,12.60
2019-04-20T02:15:35.221Z,12.40
2019-04-20T02:18:12.190Z,11.40
2019-04-20T02:20:49.091Z,10.40
2019-04-20T02:23:13.891Z,14.13
2019-04-20T02:25:29.156Z,13.70
2019-04-20T02:28:16.687Z,10.30
2019-04-20T02:31:06.287Z,13.53
2019-04-20T02:33:42.179Z,11.97
2019-04-20T02:36:29.994Z,12.83
2019-04-20T02:41:32.409Z,10.57
2019-04-20T02:44:11.700Z,14.33
2019-04-20T02:46:26.483Z,11.97
2019-04-20T02:49:00.701Z,12.60
2019-04-20T02:51:33.431Z,10.03
2019-04-20T02:54:14.136Z,10.23
2019-04-20T02:56:32.413Z,10.03
2019-04-20T02:59:27.017Z,12.50
2019-04-20T03:01:29.126Z,11.63
2019-04-20T03:03:43.443Z,10.23
2019-04-20T03:06:19.593Z,9.03
2019-04-20T03:08:56.370Z,10.63
2019-04-20T03:11:37.544Z,10.23
2019-04-20T03:13:57.816Z,10.27
2019-04-20T03:16:25.196Z,11.13
2019-04-20T03:18:55.844Z,10.63
2019-04-20T03:21:33.380Z,10.23
2019-04-20T03:24:06.428Z,10.07
2019-04-20T03:26:33.003Z,10.20
2019-04-20T03:29:01.744Z,13.27
2019-04-20T03:32:28.810Z,8.27
2019-04-20T03:37:00.373Z,12.60
2019-04-20T03:39:25.563Z,13.50
2019-04-20T03:41:43.239Z,8.97
2019-04-20T03:44:13.708Z,9.23
2019-04-20T03:46:45.756Z,10.67
2019-04-20T03:49:29.771Z,10.03
2019-04-20T03:52:06.932Z,9.40
2019-04-20T03:54:30.861Z,8.67
2019-04-20T03:57:19.669Z,9.63
2019-04-20T03:59:50.690Z,10.20
2019-04-20T04:05:01.849Z,10.93
2019-04-20T04:07:21.871Z,12.60
2019-04-20T04:10:03.014Z,9.73
2019-04-20T04:12:51.450Z,13.33
2019-04-20T04:15:20.927Z,10.90
2019-04-20T04:17:50.402Z,11.07
2019-04-20T04:20:21.443Z,16.97
2019-04-20T04:23:10.487Z,12.00
2019-04-20T04:25:33.561Z,9.23
2019-04-20T04:28:09.450Z,11.63
2019-04-20T04:30:36.546Z,16.73
2019-04-20T04:33:41.525Z,9.57
2019-04-20T04:35:32.364Z,12.33
2019-04-20T04:38:09.582Z,12.73
2019-04-20T04:40:49.495Z,13.93
2019-04-20T04:43:16.010Z,12.03
2019-04-20T04:45:28.543Z,12.97
2019-04-20T04:47:55.917Z,14.77
2019-04-20T04:50:26.602Z,14.07
2019-04-20T04:53:04.610Z,12.97
2019-04-20T04:55:35.230Z,14.70
2019-04-20T04:57:56.020Z,12.27
2019-04-20T05:00:28.198Z,14.27
2019-04-20T05:03:01.102Z,14.03
2019-04-20T05:05:54.305Z,18.90
2019-04-20T05:08:13.184Z,20.07
2019-04-20T05:10:35.220Z,23.13
2019-04-20T05:13:04.980Z,16.43
2019-04-20T05:15:50.099Z,17.97
2019-04-20T05:18:27.686Z,15.57
2019-04-20T05:20:58.773Z,16.23
2019-04-20T05:23:29.509Z,17.30
2019-04-20T05:26:14.352Z,16.17
2019-04-20T05:28:42.120Z,12.83
2019-04-20T05:31:04.537Z,13.70
2019-04-20T05:33:56.150Z,16.23
2019-04-20T05:36:20.498Z,14.00
2019-04-20T05:38:59.024Z,16.93
2019-04-20T05:41:18.528Z,12.90
2019-04-20T05:43:54.713Z,12.77
2019-04-20T05:46:32.071Z,10.17
2019-04-20T05:49:03.383Z,11.23
2019-04-20T05:51:35.059Z,11.43
2019-04-20T05:54:02.595Z,10.57
2019-04-20T05:56:35.858Z,10.67
2019-04-20T05:58:59.891Z,14.43
2019-04-20T06:01:40.789Z,8.80
2019-04-20T06:04:02.527Z,9.67
2019-04-20T06:06:37.723Z,8.13
2019-04-20T06:09:12.290Z,9.57
2019-04-20T06:12:02.737Z,11.27
2019-04-20T06:14:07.077Z,9.90
2019-04-20T06:17:00.005Z,9.37
2019-04-20T06:22:03.527Z,9.10
2019-04-20T06:24:44.827Z,9.83
2019-04-20T06:27:06.241Z,17.57
2019-04-20T06:29:34.834Z,10.17
2019-04-20T07:31:29.622Z,8.30
2019-04-20T07:33:58.137Z,6.20
2019-04-20T07:36:32.412Z,5.03
2019-04-20T07:39:10.387Z,4.93
2019-04-20T07:41:41.998Z,9.57
2019-04-20T07:44:10.204Z,5.03
2019-04-20T07:46:47.063Z,6.03
2019-04-20T07:49:02.031Z,6.70
2019-04-20T07:51:18.302Z,6.97
2019-04-20T07:54:10.119Z,7.07
2019-04-20T07:56:37.026Z,7.77
2019-04-20T07:58:50.901Z,5.70
2019-04-20T08:01:54.770Z,5.73
2019-04-20T08:04:30.041Z,6.97
2019-04-20T08:06:49.870Z,6.87
2019-04-20T08:09:23.164Z,6.20
2019-04-20T08:12:14.206Z,6.77
2019-04-20T08:14:39.728Z,4.93
2019-04-20T08:19:35.340Z,6.33
2019-04-20T08:22:10.775Z,7.07
2019-04-20T08:24:32.543Z,6.83
2019-04-20T08:26:59.012Z,5.50
2019-04-20T08:29:37.891Z,7.03
2019-04-20T08:32:25.954Z,8.83
2019-04-20T08:34:55.940Z,5.43
2019-04-20T08:37:20.797Z,7.30
2019-04-20T08:42:21.753Z,9.43
2019-04-20T08:50:21.206Z,7.67
2019-04-20T08:54:14.400Z,11.80
2019-04-20T08:56:36.247Z,10.87
2019-04-20T08:58:57.304Z,6.17
2019-04-20T09:01:29.113Z,8.13
2019-04-20T09:04:06.580Z,8.67
2019-04-20T09:06:41.714Z,7.37
2019-04-20T09:09:22.428Z,9.63
2019-04-20T09:11:49.125Z,13.17
2019-04-20T09:14:21.396Z,9.50
2019-04-20T09:16:59.227Z,6.57
2019-04-20T09:19:29.963Z,11.60
2019-04-20T09:22:09.815Z,10.63
2019-04-20T09:24:47.524Z,7.50
2019-04-20T09:27:12.831Z,8.10
2019-04-20T09:29:36.797Z,8.77
2019-04-20T09:32:21.287Z,6.27
2019-04-20T09:34:56.999Z,6.50
2019-04-20T09:37:29.603Z,10.43
2019-04-20T09:40:09.072Z,6.23
2019-04-20T09:42:17.863Z,7.87
2019-04-20T09:44:50.931Z,9.83
2019-04-20T09:47:23.839Z,6.27
2019-04-20T09:49:58.135Z,9.63
2019-04-20T09:52:31.332Z,8.77
2019-04-20T09:55:04.304Z,6.83
2019-04-20T09:57:41.028Z,12.93
2019-04-20T10:00:07.136Z,8.13
2019-04-20T10:02:27.561Z,9.40
2019-04-20T10:04:53.520Z,8.00
2019-04-20T10:07:25.636Z,5.87
2019-04-20T10:09:53.886Z,8.13
2019-04-20T10:12:24.108Z,7.43
2019-04-20T10:14:53.262Z,6.43
2019-04-20T10:17:23.624Z,9.20
2019-04-20T10:19:53.649Z,10.90
2019-04-20T10:22:22.610Z,7.57
2019-04-20T10:24:52.663Z,8.57
2019-04-20T10:27:21.787Z,6.97
2019-04-20T10:29:51.462Z,11.67
2019-04-20T10:32:25.146Z,7.27
2019-04-20T10:34:50.760Z,7.93
2019-04-20T10:37:21.737Z,10.00
2019-04-20T10:39:50.664Z,7.23
2019-04-20T10:42:20.441Z,8.70
2019-04-20T10:44:52.119Z,11.23
2019-04-20T10:47:20.838Z,6.50
2019-04-20T10:49:51.117Z,8.53
2019-04-20T10:52:20.075Z,7.70
2019-04-20T10:54:50.262Z,7.60
2019-04-20T10:57:19.537Z,8.03
2019-04-20T10:59:48.291Z,8.87
2019-04-20T11:02:17.038Z,7.77
2019-04-20T11:04:46.479Z,12.83
2019-04-20T11:07:16.360Z,9.90
2019-04-20T11:09:45.390Z,7.60
2019-04-20T11:12:14.585Z,6.77
2019-04-20T11:14:45.489Z,7.30
2019-04-20T11:17:14.157Z,6.27
2019-04-20T11:19:43.388Z,8.63
2019-04-20T11:22:12.581Z,9.37
2019-04-20T11:24:41.384Z,10.87
2019-04-20T11:27:10.194Z,11.80
2019-04-20T11:29:40.166Z,8.20
2019-04-20T11:32:09.656Z,9.90
2019-04-20T11:34:40.827Z,13.57
2019-04-20T11:37:11.009Z,13.87
2019-04-20T11:39:40.843Z,10.30
2019-04-20T11:42:10.066Z,7.60
2019-04-20T11:44:38.904Z,7.83
2019-04-20T11:47:08.507Z,13.27
2019-04-20T11:49:37.599Z,13.00
2019-04-20T11:52:07.649Z,8.97
2019-04-20T11:54:38.485Z,8.93
2019-04-20T11:57:07.256Z,11.10
2019-04-20T11:59:37.131Z,7.83
2019-04-20T12:02:20.103Z,6.93
2019-04-20T12:04:51.996Z,9.17
2019-04-20T12:07:17.119Z,8.83
2019-04-20T12:09:47.321Z,7.43
2019-04-20T12:12:27.272Z,11.17
2019-04-20T12:14:46.517Z,9.33
2019-04-20T12:17:15.601Z,8.40
2019-04-20T12:19:44.420Z,11.17
2019-04-20T12:22:13.906Z,13.57
2019-04-20T12:24:42.818Z,12.63
2019-04-20T12:27:12.522Z,12.90
2019-04-20T12:29:41.315Z,7.87
2019-04-20T12:32:10.738Z,6.97
2019-04-20T12:34:39.651Z,8.77
2019-04-20T12:37:09.064Z,9.50
2019-04-20T12:39:37.866Z,7.90
2019-04-20T12:42:09.388Z,8.10
2019-04-20T12:44:37.658Z,7.73
2019-04-20T12:47:07.671Z,7.50
2019-04-20T12:49:37.786Z,10.97
2019-04-20T12:52:06.737Z,9.40
2019-04-20T12:54:36.904Z,10.50
2019-04-20T12:57:06.749Z,8.37
2019-04-20T12:59:35.782Z,6.67
2019-04-20T13:02:05.294Z,11.53
2019-04-20T13:04:35.293Z,9.57
2019-04-20T13:07:04.281Z,11.53
2019-04-20T13:09:36.775Z,12.67
2019-04-20T13:12:13.928Z,11.90
2019-04-20T13:14:53.652Z,14.90
2019-04-20T13:17:22.424Z,12.53
2019-04-20T13:19:51.337Z,11.23
2019-04-20T13:22:21.111Z,10.53
2019-04-20T13:24:49.967Z,8.80
2019-04-20T13:27:18.792Z,13.83
2019-04-20T13:29:50.557Z,10.90
2019-04-20T13:32:18.174Z,8.90
2019-04-20T13:34:46.990Z,11.83
2019-04-20T13:37:15.974Z,6.97
2019-04-20T13:39:44.913Z,11.10
2019-04-20T13:42:20.712Z,13.73
2019-04-20T13:44:45.228Z,6.07
2019-04-20T13:47:15.049Z,16.73
2019-04-20T13:49:45.082Z,16.17
2019-04-20T13:52:15.037Z,10.60
2019-04-20T13:54:44.082Z,12.30
2019-04-20T13:57:15.599Z,14.87
2019-04-20T13:59:46.209Z,6.97
2019-04-20T14:02:35.096Z,8.40
2019-04-20T14:05:04.713Z,7.43
2019-04-20T14:07:35.572Z,8.20
2019-04-20T14:10:06.012Z,10.97
2019-04-20T14:12:37.550Z,7.17
2019-04-20T14:15:08.992Z,7.37
2019-04-20T14:17:39.124Z,15.83
2019-04-20T14:20:13.310Z,11.60
2019-04-20T14:22:38.955Z,7.93
2019-04-20T14:25:08.969Z,18.03
2019-04-20T14:27:39.062Z,16.53
2019-04-20T14:30:08.963Z,15.37
2019-04-20T14:32:38.859Z,16.20
2019-04-20T14:35:09.182Z,19.77
2019-04-20T14:37:39.366Z,12.30
2019-04-20T14:40:10.287Z,21.40
2019-04-20T14:42:44.785Z,20.33
2019-04-20T14:45:10.890Z,18.00
2019-04-20T14:47:39.768Z,16.30
2019-04-20T14:50:09.827Z,13.23
2019-04-20T14:52:39.704Z,14.37
2019-04-20T14:55:08.938Z,10.80
2019-04-20T14:57:37.688Z,9.07
2019-04-20T15:00:21.594Z,8.47
2019-04-20T15:02:50.435Z,8.00
2019-04-20T15:05:19.234Z,7.90
2019-04-20T15:07:48.881Z,8.77
2019-04-20T15:10:18.750Z,7.50
2019-04-20T15:12:54.598Z,8.37
2019-04-20T15:15:18.739Z,13.53
2019-04-20T15:17:49.095Z,8.57
2019-04-20T15:20:19.465Z,8.97
2019-04-20T15:22:49.930Z,11.17
2019-04-20T15:25:18.655Z,10.93
2019-04-20T15:27:48.160Z,15.63
2019-04-20T15:30:18.334Z,25.73
2019-04-20T15:32:47.207Z,16.40
2019-04-20T15:35:19.072Z,14.47
2019-04-20T15:37:47.047Z,12.43
2019-04-20T15:40:17.165Z,12.30
2019-04-20T15:42:57.802Z,12.40
2019-04-20T15:45:16.861Z,15.90
2019-04-20T15:47:45.931Z,12.23
2019-04-20T15:50:16.010Z,10.60
2019-04-20T15:52:50.964Z,10.67
2019-04-20T15:55:22.668Z,9.03
2019-04-20T15:57:48.228Z,8.87
2019-04-20T16:00:18.451Z,10.97
2019-04-20T16:02:54.705Z,9.77
2019-04-20T16:05:37.679Z,8.30
2019-04-20T16:08:21.529Z,9.60
2019-04-20T16:10:50.919Z,14.13
2019-04-20T16:13:26.081Z,11.93
2019-04-20T16:15:51.351Z,8.57
2019-04-20T16:18:20.899Z,11.23
2019-04-20T16:20:58.172Z,14.50
2019-04-20T16:23:20.759Z,20.47
2019-04-20T16:26:06.246Z,11.40
2019-04-20T16:28:35.354Z,14.00
2019-04-20T16:31:07.893Z,11.90
2019-04-20T16:33:34.830Z,13.13
2019-04-20T16:36:04.753Z,12.63
2019-04-20T16:38:33.530Z,12.33
2019-04-20T16:41:02.325Z,12.27
2019-04-20T16:43:37.364Z,42.83
2019-04-20T16:46:01.559Z,57.83
2019-04-20T16:48:30.458Z,75.73
2019-04-20T16:51:00.569Z,69.00
2019-04-20T16:53:30.859Z,69.60
2019-04-20T16:56:01.189Z,73.57
2019-04-20T16:58:31.423Z,66.50
2019-04-20T17:01:01.258Z,45.90
2019-04-20T17:03:40.902Z,47.10
2019-04-20T17:06:00.500Z,27.00
2019-04-20T17:08:29.369Z,25.17
2019-04-20T17:10:58.206Z,31.17
2019-04-20T17:13:35.257Z,23.90
2019-04-20T17:15:57.549Z,23.60
2019-04-20T17:18:27.479Z,23.67
2019-04-20T17:20:56.769Z,108.13
2019-04-20T17:23:25.607Z,88.37
2019-04-20T17:25:55.557Z,263.10
2019-04-20T17:28:35.283Z,198.00
2019-04-20T17:31:07.098Z,166.00
2019-04-20T17:33:50.121Z,122.83
2019-04-20T17:36:15.103Z,87.17
2019-04-20T17:38:44.582Z,59.63
2019-04-20T17:41:30.703Z,42.97
2019-04-20T17:44:00.245Z,38.83
2019-04-20T17:46:24.666Z,35.47
2019-04-20T17:48:59.499Z,30.87
2019-04-20T17:51:36.154Z,32.90
2019-04-20T17:53:52.746Z,36.40
2019-04-20T17:56:17.309Z,44.57
2019-04-20T17:58:48.018Z,36.90
2019-04-20T18:01:26.806Z,31.10
2019-04-20T18:04:31.105Z,29.03
2019-04-20T18:06:43.758Z,42.77
2019-04-20T18:09:07.135Z,59.10
2019-04-20T18:11:39.521Z,55.40
2019-04-20T18:14:10.342Z,94.90
2019-04-20T18:16:50.803Z,121.87
2019-04-20T18:19:21.812Z,130.80
2019-04-20T18:21:49.751Z,83.60
2019-04-20T18:24:42.385Z,135.43
2019-04-20T18:27:09.609Z,106.33
2019-04-20T18:29:37.263Z,128.87
2019-04-20T18:31:51.716Z,104.43
2019-04-20T18:34:25.200Z,77.83
2019-04-20T18:36:52.872Z,85.03
2019-04-20T18:39:29.159Z,90.87
2019-04-20T18:42:02.648Z,62.30
2019-04-20T18:47:12.476Z,67.07
2019-04-20T18:49:35.082Z,56.50
2019-04-20T18:51:49.052Z,64.83
2019-04-20T18:54:22.337Z,57.37
2019-04-20T18:56:50.914Z,45.50
2019-04-20T18:59:23.440Z,58.20
2019-04-20T19:01:50.932Z,49.33
2019-04-20T19:04:19.930Z,55.77
2019-04-20T19:06:49.932Z,48.87
2019-04-20T19:09:25.022Z,43.80
2019-04-20T19:11:53.493Z,41.70
2019-04-20T19:14:34.938Z,49.57
2019-04-20T19:17:08.868Z,42.40
2019-04-20T19:19:39.039Z,41.27
2019-04-20T19:22:02.056Z,46.17
2019-04-20T19:24:33.514Z,48.40
2019-04-20T19:27:06.661Z,44.40
2019-04-20T19:29:38.510Z,41.87
2019-04-20T19:32:20.594Z,40.57
2019-04-20T19:34:46.398Z,41.87
2019-04-20T19:37:14.128Z,49.40
2019-04-20T19:39:50.347Z,50.57
2019-04-20T19:42:19.737Z,55.87
2019-04-20T19:44:53.072Z,44.17
2019-04-20T19:47:28.170Z,44.97
2019-04-20T19:49:45.099Z,49.73
2019-04-20T19:54:54.715Z,52.43
2019-04-20T19:57:26.606Z,65.87
2019-04-20T19:59:41.245Z,54.60
2019-04-20T20:02:09.619Z,48.87
2019-04-20T20:04:47.093Z,55.77
2019-04-20T20:07:19.739Z,64.47
2019-04-20T20:09:48.922Z,72.97
2019-04-20T20:12:14.503Z,76.20
2019-04-20T20:14:44.838Z,83.93
2019-04-20T20:17:32.630Z,99.97
2019-04-20T20:20:09.282Z,112.50
2019-04-20T20:22:21.663Z,128.77
2019-04-20T20:24:43.143Z,111.27
2019-04-20T20:27:20.781Z,113.87
2019-04-20T20:29:55.863Z,105.90
2019-04-20T20:32:21.333Z,107.80
2019-04-20T20:34:50.658Z,115.17
2019-04-20T20:37:23.959Z,116.73
2019-04-20T20:39:53.827Z,107.83
2019-04-20T20:42:28.313Z,116.77
2019-04-20T20:44:52.388Z,110.80
2019-04-20T20:47:41.169Z,102.13
2019-04-20T20:50:13.124Z,94.77
2019-04-20T20:52:32.170Z,105.87
2019-04-20T20:54:56.487Z,98.37
2019-04-20T20:57:22.380Z,106.73
2019-04-20T20:59:55.522Z,109.83
2019-04-20T21:02:28.260Z,103.20
2019-04-20T21:04:51.428Z,97.77
2019-04-20T21:07:20.624Z,92.63
2019-04-20T21:09:50.411Z,100.60
2019-04-20T21:12:21.596Z,90.90
2019-04-20T21:14:51.023Z,92.67
2019-04-20T21:17:23.376Z,90.17
2019-04-20T21:20:08.461Z,93.37
2019-04-20T21:22:43.761Z,88.43
2019-04-20T21:24:56.776Z,96.27
2019-04-20T21:27:25.892Z,90.30
2019-04-20T21:29:58.153Z,99.90
2019-04-20T21:32:26.223Z,83.30
2019-04-20T21:35:01.452Z,82.53
2019-04-20T21:37:27.233Z,96.57
2019-04-20T21:39:59.681Z,84.30
2019-04-20T21:42:28.619Z,87.87
2019-04-20T21:45:05.627Z,102.20
2019-04-20T21:47:31.480Z,85.17
2019-04-20T21:50:18.831Z,87.70
2019-04-20T21:52:37.257Z,61.47
2019-04-20T21:55:00.372Z,44.13
2019-04-20T21:57:31.290Z,46.33
2019-04-20T22:00:08.410Z,46.60
2019-04-20T22:02:37.858Z,44.93
2019-04-20T22:05:01.567Z,47.53
2019-04-20T22:07:30.532Z,49.30
2019-04-20T22:10:00.308Z,51.67
2019-04-20T22:12:37.588Z,48.40
2019-04-20T22:15:05.461Z,66.37
2019-04-20T22:17:33.148Z,70.53
2019-04-20T22:20:11.936Z,59.00
2019-04-20T22:22:50.897Z,56.97
2019-04-20T22:25:16.364Z,52.73
2019-04-20T22:27:34.982Z,49.13
2019-04-20T22:30:02.369Z,44.93
2019-04-20T22:32:32.210Z,48.07
2019-04-20T22:35:06.487Z,49.30
2019-04-20T22:37:36.586Z,45.70
2019-04-20T22:40:11.807Z,44.13
2019-04-20T22:42:47.494Z,56.07
2019-04-20T22:45:13.342Z,47.50
2019-04-20T22:47:39.474Z,41.70
2019-04-20T22:50:25.481Z,47.70
2019-04-20T22:52:48.968Z,48.83
2019-04-20T22:55:39.303Z,48.97
2019-04-20T22:57:55.046Z,52.10
2019-04-20T23:00:21.741Z,41.07
2019-04-20T23:02:44.866Z,50.13
2019-04-20T23:05:15.187Z,49.87
2019-04-20T23:07:44.376Z,44.57
2019-04-20T23:10:18.215Z,51.13
2019-04-20T23:12:45.697Z,41.03
2019-04-20T23:15:14.632Z,44.37
2019-04-20T23:17:45.902Z,45.33
2019-04-20T23:20:22.935Z,47.40
2019-04-20T23:22:47.904Z,46.43
2019-04-20T23:25:15.401Z,44.67
2019-04-20T23:27:45.686Z,46.70
2019-04-20T23:30:23.570Z,51.47
2019-04-20T23:32:46.306Z,52.27
2019-04-20T23:35:19.545Z,46.70
2019-04-20T23:37:46.503Z,51.23
2019-04-20T23:40:16.718Z,54.37
2019-04-20T23:42:51.605Z,59.47
2019-04-20T23:45:29.270Z,54.47
2019-04-20T23:48:07.135Z,62.37
2019-04-20T23:50:50.386Z,59.97
2019-04-20T23:53:25.715Z,59.03
2019-04-20T23:55:37.747Z,48.60
2019-04-20T23:58:08.865Z,53.07
